sensor_id;sensor_type;location;lat;lon;timestamp;P1;durP1;ratioP1;P2;durP2;ratioP2
73779;SDS011;62093;37.614;15.072;2023-07-29T00:02:14;7.60;;;3.70;;
73779;SDS011;62093;37.614;15.072;2023-07-29T00:04:44;8.33;;;3.73;;
73779;SDS011;62093;37.614;15.072;2023-07-29T00:07:19;7.85;;;3.40;;
73779;SDS011;62093;37.614;15.072;2023-07-29T00:09:50;8.77;;;3.90;;
73779;SDS011;62093;37.614;15.072;2023-07-29T00:12:19;7.97;;;3.60;;
73779;SDS011;62093;37.614;15.072;2023-07-29T00:14:51;8.93;;;3.63;;
73779;SDS011;62093;37.614;15.072;2023-07-29T00:17:17;9.33;;;3.60;;
73779;SDS011;62093;37.614;15.072;2023-07-29T00:19:43;8.25;;;3.40;;
73779;SDS011;62093;37.614;15.072;2023-07-29T00:22:13;7.82;;;3.67;;
73779;SDS011;62093;37.614;15.072;2023-07-29T00:24:41;9.13;;;3.87;;
73779;SDS011;62093;37.614;15.072;2023-07-29T00:27:11;8.52;;;3.50;;
73779;SDS011;62093;37.614;15.072;2023-07-29T00:29:36;8.77;;;4.00;;
73779;SDS011;62093;37.614;15.072;2023-07-29T00:32:03;7.03;;;3.50;;
73779;SDS011;62093;37.614;15.072;2023-07-29T00:34:29;9.27;;;3.78;;
73779;SDS011;62093;37.614;15.072;2023-07-29T00:37:00;8.05;;;3.60;;
73779;SDS011;62093;37.614;15.072;2023-07-29T00:39:28;9.60;;;3.97;;
73779;SDS011;62093;37.614;15.072;2023-07-29T00:41:53;9.23;;;4.00;;
73779;SDS011;62093;37.614;15.072;2023-07-29T00:44:21;10.48;;;4.00;;
73779;SDS011;62093;37.614;15.072;2023-07-29T00:46:52;9.40;;;3.90;;
73779;SDS011;62093;37.614;15.072;2023-07-29T00:49:21;8.43;;;4.22;;
73779;SDS011;62093;37.614;15.072;2023-07-29T00:51:50;10.18;;;4.15;;
73779;SDS011;62093;37.614;15.072;2023-07-29T00:54:24;8.90;;;3.80;;
73779;SDS011;62093;37.614;15.072;2023-07-29T00:56:53;8.63;;;3.85;;
73779;SDS011;62093;37.614;15.072;2023-07-29T00:59:18;9.07;;;3.63;;
73779;SDS011;62093;37.614;15.072;2023-07-29T01:01:46;9.18;;;3.80;;
73779;SDS011;62093;37.614;15.072;2023-07-29T01:04:13;7.93;;;4.00;;
73779;SDS011;62093;37.614;15.072;2023-07-29T01:06:50;9.40;;;4.22;;
73779;SDS011;62093;37.614;15.072;2023-07-29T01:09:40;8.10;;;3.90;;
73779;SDS011;62093;37.614;15.072;2023-07-29T01:17:59;9.40;;;4.20;;
73779;SDS011;62093;37.614;15.072;2023-07-29T01:20:53;8.15;;;3.63;;
73779;SDS011;62093;37.614;15.072;2023-07-29T01:23:39;7.80;;;3.80;;
73779;SDS011;62093;37.614;15.072;2023-07-29T01:26:10;8.40;;;3.80;;
73779;SDS011;62093;37.614;15.072;2023-07-29T01:28:40;8.65;;;3.88;;
73779;SDS011;62093;37.614;15.072;2023-07-29T01:31:16;7.80;;;3.70;;
73779;SDS011;62093;37.614;15.072;2023-07-29T01:35:12;8.77;;;4.07;;
73779;SDS011;62093;37.614;15.072;2023-07-29T01:37:15;8.40;;;3.92;;
73779;SDS011;62093;37.614;15.072;2023-07-29T01:39:49;9.82;;;3.97;;
73779;SDS011;62093;37.614;15.072;2023-07-29T01:42:17;9.13;;;3.55;;
73779;SDS011;62093;37.614;15.072;2023-07-29T01:44:52;6.77;;;3.63;;
73779;SDS011;62093;37.614;15.072;2023-07-29T01:47:29;8.93;;;3.83;;
73779;SDS011;62093;37.614;15.072;2023-07-29T01:49:56;8.32;;;3.92;;
73779;SDS011;62093;37.614;15.072;2023-07-29T01:52:27;7.72;;;3.80;;
73779;SDS011;62093;37.614;15.072;2023-07-29T01:54:53;9.68;;;4.00;;
73779;SDS011;62093;37.614;15.072;2023-07-29T01:57:21;10.17;;;3.87;;
73779;SDS011;62093;37.614;15.072;2023-07-29T01:59:47;9.13;;;3.38;;
73779;SDS011;62093;37.614;15.072;2023-07-29T02:02:14;9.60;;;3.80;;
73779;SDS011;62093;37.614;15.072;2023-07-29T02:04:50;9.60;;;3.90;;
73779;SDS011;62093;37.614;15.072;2023-07-29T02:07:27;8.98;;;3.55;;
73779;SDS011;62093;37.614;15.072;2023-07-29T02:10:04;8.20;;;4.00;;
73779;SDS011;62093;37.614;15.072;2023-07-29T02:12:31;9.40;;;4.05;;
73779;SDS011;62093;37.614;15.072;2023-07-29T02:15:05;7.43;;;3.50;;
73779;SDS011;62093;37.614;15.072;2023-07-29T02:17:34;7.67;;;3.23;;
73779;SDS011;62093;37.614;15.072;2023-07-29T02:20:05;8.45;;;3.78;;
73779;SDS011;62093;37.614;15.072;2023-07-29T02:22:39;10.32;;;3.97;;
73779;SDS011;62093;37.614;15.072;2023-07-29T02:25:05;8.20;;;3.70;;
73779;SDS011;62093;37.614;15.072;2023-07-29T02:27:33;10.50;;;4.25;;
73779;SDS011;62093;37.614;15.072;2023-07-29T02:30:05;9.07;;;4.17;;
73779;SDS011;62093;37.614;15.072;2023-07-29T02:32:32;10.65;;;3.90;;
73779;SDS011;62093;37.614;15.072;2023-07-29T02:34:58;8.23;;;3.80;;
73779;SDS011;62093;37.614;15.072;2023-07-29T02:37:32;8.27;;;3.63;;
73779;SDS011;62093;37.614;15.072;2023-07-29T02:40:03;8.50;;;3.77;;
73779;SDS011;62093;37.614;15.072;2023-07-29T02:42:30;7.40;;;3.88;;
73779;SDS011;62093;37.614;15.072;2023-07-29T02:45:02;8.50;;;3.95;;
73779;SDS011;62093;37.614;15.072;2023-07-29T02:47:28;9.23;;;4.03;;
73779;SDS011;62093;37.614;15.072;2023-07-29T02:50:01;9.02;;;3.80;;
73779;SDS011;62093;37.614;15.072;2023-07-29T02:52:29;7.17;;;3.60;;
73779;SDS011;62093;37.614;15.072;2023-07-29T02:54:58;8.57;;;3.85;;
73779;SDS011;62093;37.614;15.072;2023-07-29T02:57:23;9.25;;;4.15;;
73779;SDS011;62093;37.614;15.072;2023-07-29T02:59:49;10.53;;;4.00;;
73779;SDS011;62093;37.614;15.072;2023-07-29T03:02:17;8.02;;;3.80;;
73779;SDS011;62093;37.614;15.072;2023-07-29T03:04:49;10.95;;;4.25;;
73779;SDS011;62093;37.614;15.072;2023-07-29T03:07:15;8.82;;;3.90;;
73779;SDS011;62093;37.614;15.072;2023-07-29T03:09:41;9.23;;;4.03;;
73779;SDS011;62093;37.614;15.072;2023-07-29T03:12:13;9.88;;;3.65;;
73779;SDS011;62093;37.614;15.072;2023-07-29T03:14:38;8.98;;;3.85;;
73779;SDS011;62093;37.614;15.072;2023-07-29T03:17:04;12.05;;;4.18;;
73779;SDS011;62093;37.614;15.072;2023-07-29T03:19:30;8.83;;;3.90;;
73779;SDS011;62093;37.614;15.072;2023-07-29T03:21:56;8.50;;;3.67;;
73779;SDS011;62093;37.614;15.072;2023-07-29T03:24:23;9.20;;;3.70;;
73779;SDS011;62093;37.614;15.072;2023-07-29T03:26:53;10.63;;;4.20;;
73779;SDS011;62093;37.614;15.072;2023-07-29T03:29:22;9.03;;;3.90;;
73779;SDS011;62093;37.614;15.072;2023-07-29T03:31:47;8.27;;;4.00;;
73779;SDS011;62093;37.614;15.072;2023-07-29T03:34:19;9.60;;;3.80;;
73779;SDS011;62093;37.614;15.072;2023-07-29T03:36:48;11.07;;;4.07;;
73779;SDS011;62093;37.614;15.072;2023-07-29T03:39:18;8.00;;;3.60;;
73779;SDS011;62093;37.614;15.072;2023-07-29T03:41:48;10.25;;;4.32;;
73779;SDS011;62093;37.614;15.072;2023-07-29T03:44:23;8.57;;;4.13;;
73779;SDS011;62093;37.614;15.072;2023-07-29T03:46:49;10.88;;;4.10;;
73779;SDS011;62093;37.614;15.072;2023-07-29T03:49:16;10.80;;;4.20;;
73779;SDS011;62093;37.614;15.072;2023-07-29T03:51:42;8.77;;;3.90;;
73779;SDS011;62093;37.614;15.072;2023-07-29T03:54:09;11.52;;;4.20;;
73779;SDS011;62093;37.614;15.072;2023-07-29T03:56:41;9.35;;;4.13;;
73779;SDS011;62093;37.614;15.072;2023-07-29T03:59:12;8.30;;;4.30;;
73779;SDS011;62093;37.614;15.072;2023-07-29T04:01:38;8.97;;;3.73;;
73779;SDS011;62093;37.614;15.072;2023-07-29T04:04:08;9.13;;;3.83;;
73779;SDS011;62093;37.614;15.072;2023-07-29T04:06:36;9.68;;;3.92;;
73779;SDS011;62093;37.614;15.072;2023-07-29T04:09:02;10.00;;;3.65;;
73779;SDS011;62093;37.614;15.072;2023-07-29T04:11:36;10.25;;;3.97;;
73779;SDS011;62093;37.614;15.072;2023-07-29T04:14:03;8.47;;;3.50;;
73779;SDS011;62093;37.614;15.072;2023-07-29T04:16:29;7.57;;;3.70;;
73779;SDS011;62093;37.614;15.072;2023-07-29T04:18:55;7.57;;;3.47;;
73779;SDS011;62093;37.614;15.072;2023-07-29T04:21:23;8.30;;;3.97;;
73779;SDS011;62093;37.614;15.072;2023-07-29T04:23:55;8.82;;;3.58;;
73779;SDS011;62093;37.614;15.072;2023-07-29T04:26:32;9.00;;;3.88;;
73779;SDS011;62093;37.614;15.072;2023-07-29T04:29:00;9.50;;;3.40;;
73779;SDS011;62093;37.614;15.072;2023-07-29T04:31:29;9.68;;;4.05;;
73779;SDS011;62093;37.614;15.072;2023-07-29T04:33:57;8.33;;;3.80;;
73779;SDS011;62093;37.614;15.072;2023-07-29T04:36:28;8.65;;;3.58;;
73779;SDS011;62093;37.614;15.072;2023-07-29T04:38:54;8.95;;;3.88;;
73779;SDS011;62093;37.614;15.072;2023-07-29T04:41:19;11.10;;;4.00;;
73779;SDS011;62093;37.614;15.072;2023-07-29T04:43:45;10.20;;;4.27;;
73779;SDS011;62093;37.614;15.072;2023-07-29T04:46:13;9.57;;;3.65;;
73779;SDS011;62093;37.614;15.072;2023-07-29T04:49:05;8.95;;;3.90;;
73779;SDS011;62093;37.614;15.072;2023-07-29T04:51:36;8.23;;;3.95;;
73779;SDS011;62093;37.614;15.072;2023-07-29T04:54:02;8.73;;;4.13;;
73779;SDS011;62093;37.614;15.072;2023-07-29T04:56:31;10.40;;;4.35;;
73779;SDS011;62093;37.614;15.072;2023-07-29T04:58:57;11.65;;;4.57;;
73779;SDS011;62093;37.614;15.072;2023-07-29T05:01:24;10.90;;;4.30;;
73779;SDS011;62093;37.614;15.072;2023-07-29T05:03:54;9.07;;;4.07;;
73779;SDS011;62093;37.614;15.072;2023-07-29T05:06:25;8.68;;;3.92;;
73779;SDS011;62093;37.614;15.072;2023-07-29T05:08:51;11.63;;;4.00;;
73779;SDS011;62093;37.614;15.072;2023-07-29T05:11:17;9.82;;;4.28;;
73779;SDS011;62093;37.614;15.072;2023-07-29T05:13:47;9.32;;;4.10;;
73779;SDS011;62093;37.614;15.072;2023-07-29T05:16:16;9.77;;;3.63;;
73779;SDS011;62093;37.614;15.072;2023-07-29T05:18:50;12.40;;;4.60;;
73779;SDS011;62093;37.614;15.072;2023-07-29T05:21:21;8.88;;;4.10;;
73779;SDS011;62093;37.614;15.072;2023-07-29T05:23:59;8.20;;;4.05;;
73779;SDS011;62093;37.614;15.072;2023-07-29T05:26:31;12.15;;;5.10;;
73779;SDS011;62093;37.614;15.072;2023-07-29T05:29:21;12.10;;;5.50;;
73779;SDS011;62093;37.614;15.072;2023-07-29T05:31:53;12.77;;;5.57;;
73779;SDS011;62093;37.614;15.072;2023-07-29T05:34:33;9.48;;;4.30;;
73779;SDS011;62093;37.614;15.072;2023-07-29T05:37:02;8.13;;;3.80;;
73779;SDS011;62093;37.614;15.072;2023-07-29T05:39:33;9.43;;;4.70;;
73779;SDS011;62093;37.614;15.072;2023-07-29T05:42:04;8.70;;;4.23;;
73779;SDS011;62093;37.614;15.072;2023-07-29T05:44:38;8.07;;;4.05;;
73779;SDS011;62093;37.614;15.072;2023-07-29T05:47:11;8.57;;;4.15;;
73779;SDS011;62093;37.614;15.072;2023-07-29T05:49:49;7.13;;;3.25;;
73779;SDS011;62093;37.614;15.072;2023-07-29T05:52:27;8.18;;;3.50;;
73779;SDS011;62093;37.614;15.072;2023-07-29T05:55:04;7.53;;;3.57;;
73779;SDS011;62093;37.614;15.072;2023-07-29T05:57:33;8.48;;;3.70;;
73779;SDS011;62093;37.614;15.072;2023-07-29T06:00:07;8.07;;;3.40;;
73779;SDS011;62093;37.614;15.072;2023-07-29T06:02:41;7.95;;;3.17;;
73779;SDS011;62093;37.614;15.072;2023-07-29T06:05:22;6.30;;;3.15;;
73779;SDS011;62093;37.614;15.072;2023-07-29T06:07:56;9.50;;;3.47;;
73779;SDS011;62093;37.614;15.072;2023-07-29T06:10:24;7.70;;;3.25;;
73779;SDS011;62093;37.614;15.072;2023-07-29T06:12:50;7.32;;;3.42;;
73779;SDS011;62093;37.614;15.072;2023-07-29T06:15:17;9.02;;;3.70;;
73779;SDS011;62093;37.614;15.072;2023-07-29T06:17:50;8.60;;;3.77;;
73779;SDS011;62093;37.614;15.072;2023-07-29T06:20:16;7.18;;;3.40;;
73779;SDS011;62093;37.614;15.072;2023-07-29T06:22:42;8.32;;;3.88;;
73779;SDS011;62093;37.614;15.072;2023-07-29T06:25:15;7.63;;;3.63;;
73779;SDS011;62093;37.614;15.072;2023-07-29T06:27:52;7.70;;;3.50;;
73779;SDS011;62093;37.614;15.072;2023-07-29T06:30:21;8.55;;;3.42;;
73779;SDS011;62093;37.614;15.072;2023-07-29T06:32:57;8.55;;;3.92;;
73779;SDS011;62093;37.614;15.072;2023-07-29T06:35:33;10.30;;;3.90;;
73779;SDS011;62093;37.614;15.072;2023-07-29T06:38:13;6.97;;;3.23;;
73779;SDS011;62093;37.614;15.072;2023-07-29T06:40:39;7.82;;;3.60;;
73779;SDS011;62093;37.614;15.072;2023-07-29T06:43:07;6.55;;;3.70;;
73779;SDS011;62093;37.614;15.072;2023-07-29T06:45:33;7.23;;;3.70;;
73779;SDS011;62093;37.614;15.072;2023-07-29T06:47:59;7.80;;;3.78;;
73779;SDS011;62093;37.614;15.072;2023-07-29T06:50:30;8.85;;;4.38;;
73779;SDS011;62093;37.614;15.072;2023-07-29T06:52:56;7.60;;;3.20;;
73779;SDS011;62093;37.614;15.072;2023-07-29T06:55:26;8.13;;;3.65;;
73779;SDS011;62093;37.614;15.072;2023-07-29T06:57:57;8.38;;;4.03;;
73779;SDS011;62093;37.614;15.072;2023-07-29T07:00:27;7.75;;;3.90;;
73779;SDS011;62093;37.614;15.072;2023-07-29T07:02:55;6.65;;;3.88;;
73779;SDS011;62093;37.614;15.072;2023-07-29T07:05:21;8.90;;;4.17;;
73779;SDS011;62093;37.614;15.072;2023-07-29T07:07:53;7.55;;;4.05;;
73779;SDS011;62093;37.614;15.072;2023-07-29T07:10:18;8.23;;;3.60;;
73779;SDS011;62093;37.614;15.072;2023-07-29T07:12:50;8.25;;;3.40;;
73779;SDS011;62093;37.614;15.072;2023-07-29T07:15:19;8.63;;;3.92;;
73779;SDS011;62093;37.614;15.072;2023-07-29T07:17:44;8.05;;;4.22;;
73779;SDS011;62093;37.614;15.072;2023-07-29T07:20:14;9.37;;;3.80;;
73779;SDS011;62093;37.614;15.072;2023-07-29T07:22:46;8.55;;;4.00;;
73779;SDS011;62093;37.614;15.072;2023-07-29T07:25:17;7.65;;;3.72;;
73779;SDS011;62093;37.614;15.072;2023-07-29T07:27:50;7.28;;;4.00;;
73779;SDS011;62093;37.614;15.072;2023-07-29T07:30:19;7.95;;;3.70;;
73779;SDS011;62093;37.614;15.072;2023-07-29T07:32:51;7.20;;;3.80;;
73779;SDS011;62093;37.614;15.072;2023-07-29T07:35:27;7.90;;;3.88;;
73779;SDS011;62093;37.614;15.072;2023-07-29T07:37:58;8.00;;;4.00;;
73779;SDS011;62093;37.614;15.072;2023-07-29T07:40:27;8.52;;;4.28;;
73779;SDS011;62093;37.614;15.072;2023-07-29T07:42:59;8.05;;;4.30;;
73779;SDS011;62093;37.614;15.072;2023-07-29T07:45:37;8.73;;;4.00;;
73779;SDS011;62093;37.614;15.072;2023-07-29T07:48:03;9.00;;;4.35;;
73779;SDS011;62093;37.614;15.072;2023-07-29T07:50:44;9.32;;;4.18;;
73779;SDS011;62093;37.614;15.072;2023-07-29T07:53:28;8.93;;;4.10;;
73779;SDS011;62093;37.614;15.072;2023-07-29T07:56:02;8.40;;;3.70;;
73779;SDS011;62093;37.614;15.072;2023-07-29T07:58:31;8.65;;;4.03;;
73779;SDS011;62093;37.614;15.072;2023-07-29T08:01:05;8.95;;;4.00;;
73779;SDS011;62093;37.614;15.072;2023-07-29T08:03:42;8.82;;;4.07;;
73779;SDS011;62093;37.614;15.072;2023-07-29T08:06:11;9.13;;;4.07;;
73779;SDS011;62093;37.614;15.072;2023-07-29T08:08:36;8.27;;;3.80;;
73779;SDS011;62093;37.614;15.072;2023-07-29T08:11:04;7.60;;;3.60;;
73779;SDS011;62093;37.614;15.072;2023-07-29T08:13:30;7.93;;;3.60;;
73779;SDS011;62093;37.614;15.072;2023-07-29T08:15:59;9.20;;;4.00;;
73779;SDS011;62093;37.614;15.072;2023-07-29T08:18:33;8.63;;;3.50;;
73779;SDS011;62093;37.614;15.072;2023-07-29T08:21:02;8.15;;;4.18;;
73779;SDS011;62093;37.614;15.072;2023-07-29T08:23:29;8.10;;;3.67;;
73779;SDS011;62093;37.614;15.072;2023-07-29T08:26:05;7.70;;;3.80;;
73779;SDS011;62093;37.614;15.072;2023-07-29T08:28:35;7.85;;;3.75;;
73779;SDS011;62093;37.614;15.072;2023-07-29T08:31:05;7.60;;;3.92;;
73779;SDS011;62093;37.614;15.072;2023-07-29T08:33:32;7.30;;;3.72;;
73779;SDS011;62093;37.614;15.072;2023-07-29T08:36:03;7.47;;;3.95;;
73779;SDS011;62093;37.614;15.072;2023-07-29T08:38:32;7.50;;;3.97;;
73779;SDS011;62093;37.614;15.072;2023-07-29T08:43:43;8.02;;;3.78;;
73779;SDS011;62093;37.614;15.072;2023-07-29T08:46:35;7.07;;;3.55;;
73779;SDS011;62093;37.614;15.072;2023-07-29T08:49:03;8.90;;;3.80;;
73779;SDS011;62093;37.614;15.072;2023-07-29T08:51:31;7.50;;;3.90;;
73779;SDS011;62093;37.614;15.072;2023-07-29T08:54:01;5.85;;;3.20;;
73779;SDS011;62093;37.614;15.072;2023-07-29T08:56:27;8.07;;;3.80;;
73779;SDS011;62093;37.614;15.072;2023-07-29T08:58:58;9.50;;;3.70;;
73779;SDS011;62093;37.614;15.072;2023-07-29T09:01:35;7.67;;;3.93;;
73779;SDS011;62093;37.614;15.072;2023-07-29T09:04:06;7.63;;;3.85;;
73779;SDS011;62093;37.614;15.072;2023-07-29T09:06:39;8.35;;;4.00;;
73779;SDS011;62093;37.614;15.072;2023-07-29T09:09:08;7.63;;;3.90;;
73779;SDS011;62093;37.614;15.072;2023-07-29T09:11:37;7.75;;;3.78;;
73779;SDS011;62093;37.614;15.072;2023-07-29T09:14:08;7.90;;;4.00;;
73779;SDS011;62093;37.614;15.072;2023-07-29T09:16:48;8.68;;;4.18;;
73779;SDS011;62093;37.614;15.072;2023-07-29T09:19:18;8.48;;;3.60;;
73779;SDS011;62093;37.614;15.072;2023-07-29T09:21:59;8.30;;;3.65;;
73779;SDS011;62093;37.614;15.072;2023-07-29T09:24:26;7.65;;;3.50;;
73779;SDS011;62093;37.614;15.072;2023-07-29T09:27:05;7.70;;;4.20;;
73779;SDS011;62093;37.614;15.072;2023-07-29T09:29:31;8.18;;;3.97;;
73779;SDS011;62093;37.614;15.072;2023-07-29T09:32:20;7.82;;;3.75;;
73779;SDS011;62093;37.614;15.072;2023-07-29T09:35:16;7.05;;;3.63;;
73779;SDS011;62093;37.614;15.072;2023-07-29T09:37:44;6.80;;;3.50;;
73779;SDS011;62093;37.614;15.072;2023-07-29T09:40:13;7.70;;;3.50;;
73779;SDS011;62093;37.614;15.072;2023-07-29T09:42:58;8.20;;;3.28;;
73779;SDS011;62093;37.614;15.072;2023-07-29T09:45:24;7.25;;;3.35;;
73779;SDS011;62093;37.614;15.072;2023-07-29T09:47:57;9.07;;;3.87;;
73779;SDS011;62093;37.614;15.072;2023-07-29T09:50:29;9.27;;;3.38;;
73779;SDS011;62093;37.614;15.072;2023-07-29T09:52:55;7.30;;;3.78;;
73779;SDS011;62093;37.614;15.072;2023-07-29T09:55:38;7.63;;;3.88;;
73779;SDS011;62093;37.614;15.072;2023-07-29T09:58:14;8.50;;;4.03;;
73779;SDS011;62093;37.614;15.072;2023-07-29T10:00:56;8.10;;;3.53;;
73779;SDS011;62093;37.614;15.072;2023-07-29T10:03:25;7.15;;;3.30;;
73779;SDS011;62093;37.614;15.072;2023-07-29T10:05:54;9.02;;;3.92;;
73779;SDS011;62093;37.614;15.072;2023-07-29T10:08:23;9.30;;;3.70;;
73779;SDS011;62093;37.614;15.072;2023-07-29T10:11:01;8.82;;;3.55;;
73779;SDS011;62093;37.614;15.072;2023-07-29T10:13:41;6.97;;;3.10;;
73779;SDS011;62093;37.614;15.072;2023-07-29T10:16:09;7.82;;;3.60;;
73779;SDS011;62093;37.614;15.072;2023-07-29T10:18:36;8.40;;;3.80;;
73779;SDS011;62093;37.614;15.072;2023-07-29T10:21:07;6.93;;;3.63;;
73779;SDS011;62093;37.614;15.072;2023-07-29T10:23:42;8.20;;;3.95;;
73779;SDS011;62093;37.614;15.072;2023-07-29T10:26:35;7.27;;;3.60;;
73779;SDS011;62093;37.614;15.072;2023-07-29T10:29:19;7.25;;;3.30;;
73779;SDS011;62093;37.614;15.072;2023-07-29T10:32:01;7.90;;;3.65;;
73779;SDS011;62093;37.614;15.072;2023-07-29T10:34:41;8.32;;;3.60;;
73779;SDS011;62093;37.614;15.072;2023-07-29T10:37:13;7.38;;;3.50;;
73779;SDS011;62093;37.614;15.072;2023-07-29T10:40:05;8.13;;;3.60;;
73779;SDS011;62093;37.614;15.072;2023-07-29T10:43:02;9.02;;;3.65;;
73779;SDS011;62093;37.614;15.072;2023-07-29T10:45:49;8.68;;;3.92;;
73779;SDS011;62093;37.614;15.072;2023-07-29T10:56:31;7.55;;;3.45;;
73779;SDS011;62093;37.614;15.072;2023-07-29T11:01:41;7.03;;;3.50;;
73779;SDS011;62093;37.614;15.072;2023-07-29T11:15:33;7.45;;;3.47;;
73779;SDS011;62093;37.614;15.072;2023-07-29T11:18:03;6.63;;;3.22;;
73779;SDS011;62093;37.614;15.072;2023-07-29T11:20:36;7.17;;;3.27;;
73779;SDS011;62093;37.614;15.072;2023-07-29T11:23:08;6.88;;;3.03;;
73779;SDS011;62093;37.614;15.072;2023-07-29T11:25:39;6.20;;;2.90;;
73779;SDS011;62093;37.614;15.072;2023-07-29T11:28:04;10.05;;;3.28;;
73779;SDS011;62093;37.614;15.072;2023-07-29T11:30:30;6.40;;;3.03;;
73779;SDS011;62093;37.614;15.072;2023-07-29T11:33:03;8.35;;;3.30;;
73779;SDS011;62093;37.614;15.072;2023-07-29T11:35:29;6.70;;;3.15;;
73779;SDS011;62093;37.614;15.072;2023-07-29T11:38:03;6.75;;;3.08;;
73779;SDS011;62093;37.614;15.072;2023-07-29T11:40:30;5.80;;;2.80;;
73779;SDS011;62093;37.614;15.072;2023-07-29T11:42:56;5.82;;;2.88;;
73779;SDS011;62093;37.614;15.072;2023-07-29T11:45:27;7.28;;;2.90;;
73779;SDS011;62093;37.614;15.072;2023-07-29T11:47:56;6.68;;;3.33;;
73779;SDS011;62093;37.614;15.072;2023-07-29T11:50:26;6.40;;;2.67;;
73779;SDS011;62093;37.614;15.072;2023-07-29T11:52:55;6.47;;;2.80;;
73779;SDS011;62093;37.614;15.072;2023-07-29T11:55:26;6.43;;;3.08;;
73779;SDS011;62093;37.614;15.072;2023-07-29T11:58:03;6.55;;;3.13;;
73779;SDS011;62093;37.614;15.072;2023-07-29T12:00:32;6.65;;;2.97;;
73779;SDS011;62093;37.614;15.072;2023-07-29T12:03:01;6.00;;;3.00;;
73779;SDS011;62093;37.614;15.072;2023-07-29T12:05:27;7.70;;;3.23;;
73779;SDS011;62093;37.614;15.072;2023-07-29T12:07:56;5.88;;;2.83;;
73779;SDS011;62093;37.614;15.072;2023-07-29T12:10:27;6.88;;;2.90;;
73779;SDS011;62093;37.614;15.072;2023-07-29T12:12:57;6.80;;;3.03;;
73779;SDS011;62093;37.614;15.072;2023-07-29T12:15:27;5.57;;;2.80;;
73779;SDS011;62093;37.614;15.072;2023-07-29T12:17:56;5.90;;;2.97;;
73779;SDS011;62093;37.614;15.072;2023-07-29T12:20:23;5.82;;;2.58;;
73779;SDS011;62093;37.614;15.072;2023-07-29T12:22:57;7.20;;;3.17;;
73779;SDS011;62093;37.614;15.072;2023-07-29T12:25:26;6.57;;;2.75;;
73779;SDS011;62093;37.614;15.072;2023-07-29T12:28:06;6.30;;;2.80;;
73779;SDS011;62093;37.614;15.072;2023-07-29T12:30:43;5.55;;;2.70;;
73779;SDS011;62093;37.614;15.072;2023-07-29T12:33:09;5.40;;;2.80;;
73779;SDS011;62093;37.614;15.072;2023-07-29T12:35:35;5.70;;;3.08;;
73779;SDS011;62093;37.614;15.072;2023-07-29T12:38:06;5.20;;;2.50;;
73779;SDS011;62093;37.614;15.072;2023-07-29T12:40:32;5.25;;;2.75;;
73779;SDS011;62093;37.614;15.072;2023-07-29T12:43:03;5.60;;;2.90;;
73779;SDS011;62093;37.614;15.072;2023-07-29T12:45:36;5.40;;;2.60;;
73779;SDS011;62093;37.614;15.072;2023-07-29T12:48:09;5.57;;;2.28;;
73779;SDS011;62093;37.614;15.072;2023-07-29T12:50:38;6.40;;;2.73;;
73779;SDS011;62093;37.614;15.072;2023-07-29T12:53:06;5.40;;;2.72;;
73779;SDS011;62093;37.614;15.072;2023-07-29T12:55:34;5.95;;;2.58;;
73779;SDS011;62093;37.614;15.072;2023-07-29T12:58:06;4.78;;;2.30;;
73779;SDS011;62093;37.614;15.072;2023-07-29T13:00:31;5.28;;;2.55;;
73779;SDS011;62093;37.614;15.072;2023-07-29T13:03:00;5.53;;;2.20;;
73779;SDS011;62093;37.614;15.072;2023-07-29T13:05:34;6.07;;;2.80;;
73779;SDS011;62093;37.614;15.072;2023-07-29T13:08:04;5.40;;;2.53;;
73779;SDS011;62093;37.614;15.072;2023-07-29T13:10:32;5.57;;;2.30;;
73779;SDS011;62093;37.614;15.072;2023-07-29T13:13:00;5.40;;;2.40;;
73779;SDS011;62093;37.614;15.072;2023-07-29T13:15:30;5.18;;;2.50;;
73779;SDS011;62093;37.614;15.072;2023-07-29T13:17:59;5.43;;;2.70;;
73779;SDS011;62093;37.614;15.072;2023-07-29T13:20:28;5.50;;;2.30;;
73779;SDS011;62093;37.614;15.072;2023-07-29T13:22:56;6.17;;;2.40;;
73779;SDS011;62093;37.614;15.072;2023-07-29T13:25:27;5.82;;;2.75;;
73779;SDS011;62093;37.614;15.072;2023-07-29T13:27:56;6.15;;;2.42;;
73779;SDS011;62093;37.614;15.072;2023-07-29T13:30:24;4.95;;;2.30;;
73779;SDS011;62093;37.614;15.072;2023-07-29T13:32:55;5.07;;;2.38;;
73779;SDS011;62093;37.614;15.072;2023-07-29T13:35:24;5.63;;;2.43;;
73779;SDS011;62093;37.614;15.072;2023-07-29T13:37:53;5.47;;;2.33;;
73779;SDS011;62093;37.614;15.072;2023-07-29T13:40:22;5.35;;;2.42;;
73779;SDS011;62093;37.614;15.072;2023-07-29T13:42:50;5.20;;;2.30;;
73779;SDS011;62093;37.614;15.072;2023-07-29T13:45:17;5.00;;;2.33;;
73779;SDS011;62093;37.614;15.072;2023-07-29T13:47:45;5.50;;;2.20;;
73779;SDS011;62093;37.614;15.072;2023-07-29T13:50:11;5.30;;;2.35;;
73779;SDS011;62093;37.614;15.072;2023-07-29T13:52:39;5.07;;;2.50;;
73779;SDS011;62093;37.614;15.072;2023-07-29T13:55:08;5.53;;;2.45;;
73779;SDS011;62093;37.614;15.072;2023-07-29T13:57:33;6.17;;;2.27;;
73779;SDS011;62093;37.614;15.072;2023-07-29T14:00:03;5.30;;;2.05;;
73779;SDS011;62093;37.614;15.072;2023-07-29T14:02:44;8.02;;;2.50;;
73779;SDS011;62093;37.614;15.072;2023-07-29T14:05:13;5.15;;;2.10;;
73779;SDS011;62093;37.614;15.072;2023-07-29T14:07:39;4.72;;;2.10;;
73779;SDS011;62093;37.614;15.072;2023-07-29T14:10:05;4.93;;;2.13;;
73779;SDS011;62093;37.614;15.072;2023-07-29T14:12:34;5.85;;;2.20;;
73779;SDS011;62093;37.614;15.072;2023-07-29T14:15:08;5.60;;;2.35;;
73779;SDS011;62093;37.614;15.072;2023-07-29T14:17:36;5.65;;;2.58;;
73779;SDS011;62093;37.614;15.072;2023-07-29T14:20:05;6.23;;;2.40;;
73779;SDS011;62093;37.614;15.072;2023-07-29T14:22:37;6.13;;;2.72;;
73779;SDS011;62093;37.614;15.072;2023-07-29T14:25:08;4.60;;;2.25;;
73779;SDS011;62093;37.614;15.072;2023-07-29T14:27:37;5.32;;;2.15;;
73779;SDS011;62093;37.614;15.072;2023-07-29T14:30:03;4.83;;;2.07;;
73779;SDS011;62093;37.614;15.072;2023-07-29T14:32:33;4.93;;;2.38;;
73779;SDS011;62093;37.614;15.072;2023-07-29T14:35:01;5.38;;;2.30;;
73779;SDS011;62093;37.614;15.072;2023-07-29T14:37:31;5.18;;;2.38;;
73779;SDS011;62093;37.614;15.072;2023-07-29T14:40:01;6.20;;;2.50;;
73779;SDS011;62093;37.614;15.072;2023-07-29T14:42:28;5.93;;;2.40;;
73779;SDS011;62093;37.614;15.072;2023-07-29T14:44:54;5.93;;;2.58;;
73779;SDS011;62093;37.614;15.072;2023-07-29T14:47:22;5.88;;;2.47;;
73779;SDS011;62093;37.614;15.072;2023-07-29T14:49:50;5.82;;;2.47;;
73779;SDS011;62093;37.614;15.072;2023-07-29T14:54:56;5.40;;;2.35;;
73779;SDS011;62093;37.614;15.072;2023-07-29T14:57:24;4.93;;;1.90;;
73779;SDS011;62093;37.614;15.072;2023-07-29T14:59:50;5.20;;;2.47;;
73779;SDS011;62093;37.614;15.072;2023-07-29T15:02:23;5.07;;;2.50;;
73779;SDS011;62093;37.614;15.072;2023-07-29T15:04:50;6.82;;;2.63;;
73779;SDS011;62093;37.614;15.072;2023-07-29T15:07:16;5.93;;;2.10;;
73779;SDS011;62093;37.614;15.072;2023-07-29T15:09:48;5.78;;;2.50;;
73779;SDS011;62093;37.614;15.072;2023-07-29T15:12:16;5.35;;;2.40;;
73779;SDS011;62093;37.614;15.072;2023-07-29T15:14:43;4.82;;;2.20;;
73779;SDS011;62093;37.614;15.072;2023-07-29T15:17:15;5.55;;;2.45;;
73779;SDS011;62093;37.614;15.072;2023-07-29T15:19:41;5.33;;;2.20;;
73779;SDS011;62093;37.614;15.072;2023-07-29T15:22:11;5.32;;;2.33;;
73779;SDS011;62093;37.614;15.072;2023-07-29T15:24:37;4.88;;;2.20;;
73779;SDS011;62093;37.614;15.072;2023-07-29T15:27:05;4.95;;;2.40;;
73779;SDS011;62093;37.614;15.072;2023-07-29T15:29:32;5.10;;;2.33;;